Time;durP1;ratioP1;P1;durP2;ratioP2;P2;SDS_P1;SDS_P2;PMS_P1;PMS_P2;Temp;Humidity;BMP_temperature;BMP_pressure;BME280_temperature;BME280_humidity;BME280_pressure;Samples;Min_cycle;Max_cycle;Signal;HPM_P1;HPM_P2
2022/09/06 00:00:07;;;;;;;3.30;1.50;;;19.10;55.10;;;;;;4981711;28;20062;-76
2022/09/06 00:02:33;;;;;;;3.33;1.25;;;19.10;55.20;;;;;;4981799;28;20040;-76
2022/09/06 00:04:59;;;;;;;2.08;0.95;;;19.10;55.40;;;;;;4982920;28;20046;-76
2022/09/06 00:07:24;;;;;;;1.50;1.30;;;19.10;55.40;;;;;;4995818;28;20054;-75
2022/09/06 00:09:53;;;;;;;1.77;1.35;;;19.10;55.50;;;;;;4997749;28;20030;-75
2022/09/06 00:12:18;;;;;;;3.00;1.10;;;19.00;55.50;;;;;;4994714;28;20022;-76
2022/09/06 00:14:44;;;;;;;1.50;1.40;;;19.00;55.70;;;;;;4981697;28;20482;-76
2022/09/06 00:17:09;;;;;;;4.43;1.45;;;19.00;55.80;;;;;;4995463;28;20037;-76
2022/09/06 00:19:35;;;;;;;2.50;1.30;;;18.90;55.90;;;;;;4984122;28;20031;-76
2022/09/06 00:22:00;;;;;;;2.72;1.27;;;18.90;55.90;;;;;;5000929;28;20343;-77
2022/09/06 00:24:26;;;;;;;3.25;1.30;;;18.90;56.00;;;;;;4994683;28;20110;-76
2022/09/06 00:26:51;;;;;;;2.20;1.10;;;18.90;56.10;;;;;;4978273;28;20048;-77
2022/09/06 00:29:17;;;;;;;2.20;1.38;;;18.90;56.20;;;;;;4979716;28;20049;-77
2022/09/06 00:31:42;;;;;;;2.92;1.45;;;18.80;56.20;;;;;;4996636;28;20042;-76
2022/09/06 00:34:08;;;;;;;3.63;1.35;;;18.80;56.20;;;;;;4979949;28;20046;-77
2022/09/06 00:36:33;;;;;;;3.22;1.60;;;18.80;56.40;;;;;;4996185;28;20066;-76
2022/09/06 00:38:59;;;;;;;2.80;1.33;;;18.80;56.60;;;;;;4997777;28;20042;-77
2022/09/06 00:41:24;;;;;;;1.75;1.40;;;18.80;56.60;;;;;;4998070;28;20042;-76
2022/09/06 00:43:50;;;;;;;2.83;1.40;;;18.70;56.70;;;;;;4980290;28;20042;-76
2022/09/06 00:46:20;;;;;;;1.67;1.40;;;18.70;56.70;;;;;;4963224;28;20103;-76
2022/09/06 00:48:47;;;;;;;2.20;1.20;;;18.70;56.90;;;;;;4976409;28;20098;-76
2022/09/06 00:51:13;;;;;;;2.53;1.35;;;18.70;56.90;;;;;;4976597;28;20102;-77
2022/09/06 00:53:38;;;;;;;2.08;1.48;;;18.60;56.90;;;;;;4993429;28;20685;-76
2022/09/06 00:56:04;;;;;;;3.88;1.33;;;18.60;57.10;;;;;;4963463;28;20045;-76
2022/09/06 00:58:29;;;;;;;4.72;1.20;;;18.60;57.10;;;;;;4987602;28;20054;-76
2022/09/06 01:00:55;;;;;;;2.33;1.45;;;18.60;57.30;;;;;;4955114;28;20034;-78
2022/09/06 01:03:21;;;;;;;2.83;1.58;;;18.50;57.30;;;;;;4976785;28;20180;-75
2022/09/06 01:06:14;;;;;;;4.78;1.80;;;18.50;57.30;;;;;;4990371;28;20130;-76
2022/09/06 01:09:18;;;;;;;2.75;1.50;;;18.50;57.70;;;;;;4989115;28;20075;-76
2022/09/06 01:12:03;;;;;;;1.65;1.30;;;18.50;58.00;;;;;;4972040;28;20047;-76
2022/09/06 01:14:53;;;;;;;2.45;1.17;;;18.40;57.50;;;;;;4975248;28;20034;-77
2022/09/06 01:17:33;;;;;;;4.32;1.73;;;18.40;57.70;;;;;;4959559;28;20039;-76
2022/09/06 01:20:28;;;;;;;2.35;1.00;;;18.40;57.90;;;;;;4979777;28;22442;-75
2022/09/06 01:23:11;;;;;;;2.65;1.25;;;18.30;58.00;;;;;;4960771;28;20487;-76
2022/09/06 01:25:56;;;;;;;2.80;1.40;;;18.30;58.10;;;;;;4978955;28;20051;-75
2022/09/06 01:28:45;;;;;;;3.25;1.10;;;18.30;57.80;;;;;;4974765;28;20042;-76
2022/09/06 01:31:29;;;;;;;2.35;1.42;;;18.30;58.30;;;;;;4962205;28;20400;-77
2022/09/06 01:34:07;;;;;;;3.15;1.20;;;18.20;58.10;;;;;;4953235;28;20114;-77
2022/09/06 01:36:38;;;;;;;2.45;1.45;;;18.20;58.30;;;;;;4973704;28;20031;-77
2022/09/06 01:39:04;;;;;;;3.78;1.38;;;18.20;58.30;;;;;;4962755;28;20063;-77
2022/09/06 01:41:29;;;;;;;2.40;1.40;;;18.20;58.30;;;;;;4963777;28;20035;-77
2022/09/06 01:43:55;;;;;;;2.40;1.30;;;18.20;58.30;;;;;;4969725;28;20050;-77
2022/09/06 01:46:38;;;;;;;3.10;1.25;;;18.10;58.30;;;;;;4957628;28;20039;-77
2022/09/06 01:49:26;;;;;;;1.90;1.05;;;18.10;58.60;;;;;;4986629;28;20125;-77
2022/09/06 01:52:40;;;;;;;3.03;1.73;;;18.10;58.60;;;;;;4975071;28;20039;-77
2022/09/06 01:55:27;;;;;;;4.90;1.40;;;18.10;59.00;;;;;;4975942;28;20035;-77
2022/09/06 01:58:15;;;;;;;1.25;1.05;;;18.10;59.00;;;;;;4991680;28;20058;-76
2022/09/06 02:00:54;;;;;;;2.25;1.30;;;18.00;59.00;;;;;;4992318;28;20098;-77
2022/09/06 02:03:30;;;;;;;3.35;1.48;;;18.00;58.80;;;;;;4966373;28;20043;-76
2022/09/06 02:06:07;;;;;;;1.55;1.30;;;17.90;58.80;;;;;;4980578;28;20043;-77
2022/09/06 02:08:36;;;;;;;3.78;1.35;;;18.00;59.00;;;;;;4960619;28;20054;-77
2022/09/06 02:11:02;;;;;;;2.08;1.50;;;17.90;58.90;;;;;;4976822;28;20489;-77
2022/09/06 02:13:38;;;;;;;2.10;1.40;;;17.90;59.00;;;;;;4985253;28;20102;-77
2022/09/06 02:16:05;;;;;;;1.90;1.60;;;17.90;59.30;;;;;;4996925;28;20050;-77
2022/09/06 02:18:39;;;;;;;1.98;1.48;;;17.90;59.20;;;;;;4996118;28;20046;-77
2022/09/06 02:21:05;;;;;;;2.42;1.60;;;17.90;59.40;;;;;;4950721;28;20031;-77
2022/09/06 02:23:33;;;;;;;5.03;1.50;;;17.80;59.40;;;;;;4963863;28;20115;-77
2022/09/06 02:26:08;;;;;;;1.48;1.38;;;17.80;59.40;;;;;;4955647;28;20047;-76
2022/09/06 02:28:34;;;;;;;4.25;1.48;;;17.80;59.50;;;;;;4962161;28;20127;-77
2022/09/06 02:31:04;;;;;;;1.48;1.38;;;17.80;59.50;;;;;;4969973;28;20550;-77
2022/09/06 02:33:31;;;;;;;1.50;1.40;;;17.80;59.60;;;;;;4971317;28;20082;-78
2022/09/06 02:35:56;;;;;;;2.67;1.92;;;17.80;59.70;;;;;;4968090;28;20034;-77
2022/09/06 02:38:23;;;;;;;2.13;1.30;;;17.80;59.70;;;;;;4953817;28;20039;-78
2022/09/06 02:40:49;;;;;;;2.22;1.40;;;17.70;59.90;;;;;;4955344;28;20034;-77
2022/09/06 02:43:14;;;;;;;1.90;1.27;;;17.80;60.00;;;;;;4974536;28;20042;-77
2022/09/06 02:45:40;;;;;;;1.30;1.20;;;17.70;59.90;;;;;;5012235;28;20041;-77
2022/09/06 02:48:05;;;;;;;2.17;1.45;;;17.70;60.00;;;;;;4976750;28;20098;-77
2022/09/06 02:50:31;;;;;;;2.28;1.70;;;17.70;60.10;;;;;;4996258;28;20042;-77
2022/09/06 02:53:08;;;;;;;1.42;1.33;;;17.70;60.10;;;;;;4983113;28;20117;-77
2022/09/06 02:55:33;;;;;;;2.88;1.60;;;17.70;60.40;;;;;;4969841;28;20047;-77
2022/09/06 02:57:59;;;;;;;4.55;1.70;;;17.60;60.20;;;;;;4957292;28;20345;-76
2022/09/06 03:00:25;;;;;;;4.45;1.52;;;17.70;60.60;;;;;;4977809;28;20034;-77
2022/09/06 03:02:51;;;;;;;3.20;1.30;;;17.60;60.40;;;;;;4977947;28;20038;-77
2022/09/06 03:05:16;;;;;;;2.65;1.50;;;17.70;60.60;;;;;;4986224;28;20044;-76
2022/09/06 03:07:42;;;;;;;1.85;1.65;;;17.70;60.60;;;;;;4982762;28;20097;-77
2022/09/06 03:10:08;;;;;;;1.55;1.40;;;17.60;60.60;;;;;;4998495;28;20048;-77
2022/09/06 03:12:34;;;;;;;2.75;1.40;;;17.70;60.70;;;;;;4999011;28;20065;-77
2022/09/06 03:14:59;;;;;;;4.13;1.30;;;17.60;60.70;;;;;;4978410;28;20034;-77
2022/09/06 03:17:25;;;;;;;7.75;1.98;;;17.60;60.80;;;;;;4980896;28;20038;-77
2022/09/06 03:19:50;;;;;;;1.48;1.30;;;17.60;60.90;;;;;;4982308;28;20022;-77
2022/09/06 03:22:16;;;;;;;1.55;1.45;;;17.60;61.00;;;;;;4980319;28;20053;-78
2022/09/06 03:24:41;;;;;;;1.90;1.60;;;17.50;61.20;;;;;;4980318;28;20069;-77
2022/09/06 03:27:07;;;;;;;3.40;1.77;;;17.60;61.50;;;;;;4990998;28;20037;-78
2022/09/06 03:29:32;;;;;;;5.65;1.73;;;17.50;61.80;;;;;;4994388;28;20064;-77
2022/09/06 03:31:58;;;;;;;2.15;1.25;;;17.60;62.10;;;;;;4980373;28;20046;-76
2022/09/06 03:34:23;;;;;;;2.80;1.88;;;17.60;62.10;;;;;;4982572;28;20057;-77
2022/09/06 03:36:49;;;;;;;4.85;1.77;;;17.60;62.30;;;;;;4982333;28;20042;-75
2022/09/06 03:39:14;;;;;;;3.40;1.90;;;17.70;62.50;;;;;;5008334;28;20084;-76
2022/09/06 03:41:40;;;;;;;2.85;1.48;;;17.70;62.30;;;;;;5013519;28;20045;-77
2022/09/06 03:44:05;;;;;;;9.90;2.15;;;17.70;62.50;;;;;;4999798;28;20034;-77
2022/09/06 03:46:31;;;;;;;5.28;1.83;;;17.80;62.50;;;;;;4981242;28;20085;-77
2022/09/06 03:48:57;;;;;;;4.18;2.00;;;17.80;62.60;;;;;;4994436;28;20057;-77
2022/09/06 03:51:22;;;;;;;4.80;1.63;;;17.80;62.60;;;;;;4992312;28;20074;-78
2022/09/06 03:53:48;;;;;;;4.40;1.67;;;17.80;62.60;;;;;;4981602;28;20038;-77
2022/09/06 03:56:13;;;;;;;4.00;1.50;;;17.90;62.70;;;;;;5014902;28;20939;-76
2022/09/06 03:58:39;;;;;;;4.13;1.95;;;17.90;62.70;;;;;;4984535;28;20045;-76
2022/09/06 04:01:07;;;;;;;3.47;1.55;;;17.90;62.60;;;;;;5013648;28;20049;-76
2022/09/06 04:03:32;;;;;;;1.60;1.30;;;17.90;62.70;;;;;;4979554;28;20038;-77
2022/09/06 04:05:58;;;;;;;2.85;1.52;;;17.90;62.60;;;;;;5015344;28;20041;-76
2022/09/06 04:08:24;;;;;;;5.93;2.00;;;17.90;62.50;;;;;;4996711;28;20098;-76
2022/09/06 04:10:52;;;;;;;2.00;1.55;;;17.90;62.50;;;;;;4999187;28;20041;-77
2022/09/06 04:13:18;;;;;;;2.53;1.70;;;17.90;62.40;;;;;;4997957;28;20042;-77
2022/09/06 04:15:45;;;;;;;4.72;1.77;;;17.90;62.30;;;;;;4966551;28;20072;-77
2022/09/06 04:18:11;;;;;;;3.13;1.52;;;17.90;62.40;;;;;;4967837;28;20049;-78
2022/09/06 04:20:36;;;;;;;1.58;1.23;;;17.80;62.40;;;;;;4984451;28;20038;-77
2022/09/06 04:23:02;;;;;;;1.45;1.33;;;17.80;62.30;;;;;;4995257;28;20044;-77
2022/09/06 04:25:28;;;;;;;3.75;1.40;;;17.90;62.40;;;;;;4977488;28;20117;-76
2022/09/06 04:27:54;;;;;;;2.30;1.77;;;17.80;62.20;;;;;;4998459;28;21071;-77
2022/09/06 04:30:19;;;;;;;4.60;1.77;;;17.80;62.30;;;;;;4999645;28;20042;-77
2022/09/06 04:32:45;;;;;;;2.55;1.40;;;17.80;62.30;;;;;;4998204;28;20057;-77
2022/09/06 04:35:10;;;;;;;1.77;1.42;;;17.80;62.30;;;;;;5019420;28;20041;-76
2022/09/06 04:37:36;;;;;;;2.13;1.50;;;17.80;62.40;;;;;;4998734;28;20037;-76
2022/09/06 04:40:02;;;;;;;1.42;1.33;;;17.80;62.30;;;;;;5000174;28;20045;-77
2022/09/06 04:42:27;;;;;;;4.53;1.33;;;17.80;62.30;;;;;;5020291;28;20034;-76
2022/09/06 04:44:53;;;;;;;2.58;1.60;;;17.80;62.40;;;;;;4984807;28;20450;-77
2022/09/06 04:47:18;;;;;;;3.97;1.60;;;17.80;62.40;;;;;;4983853;28;20041;-77
2022/09/06 04:49:44;;;;;;;3.15;1.55;;;17.80;62.60;;;;;;4982997;28;20039;-77
2022/09/06 04:52:10;;;;;;;2.47;1.60;;;17.80;62.50;;;;;;4984911;28;20697;-76
2022/09/06 04:54:35;;;;;;;3.70;2.20;;;17.80;62.60;;;;;;5015322;28;20676;-77
2022/09/06 04:57:01;;;;;;;5.80;2.17;;;17.80;62.80;;;;;;4985168;28;20108;-77
2022/09/06 04:59:27;;;;;;;5.25;1.95;;;17.70;62.70;;;;;;4999997;28;20038;-77
2022/09/06 05:01:52;;;;;;;3.58;1.30;;;17.70;62.80;;;;;;4999323;28;20021;-77
2022/09/06 05:04:18;;;;;;;3.55;1.40;;;17.70;62.90;;;;;;4967024;28;20049;-77
2022/09/06 05:06:44;;;;;;;4.28;1.45;;;17.70;62.80;;;;;;4984388;28;20053;-76
2022/09/06 05:09:10;;;;;;;3.47;1.58;;;17.70;62.80;;;;;;4983979;28;20046;-76
2022/09/06 05:11:35;;;;;;;2.30;1.90;;;17.80;62.90;;;;;;4967618;28;20036;-77
2022/09/06 05:14:01;;;;;;;5.40;2.33;;;17.70;62.80;;;;;;5014467;28;20444;-78
2022/09/06 05:16:26;;;;;;;2.80;1.48;;;17.80;62.90;;;;;;4986718;28;20034;-77
2022/09/06 05:18:52;;;;;;;3.38;1.67;;;17.80;63.00;;;;;;4996241;28;20030;-77
2022/09/06 05:21:17;;;;;;;2.80;1.75;;;17.80;62.90;;;;;;4982996;28;20113;-77
2022/09/06 05:23:43;;;;;;;1.60;1.50;;;17.80;63.10;;;;;;4982531;28;20033;-77
2022/09/06 05:26:08;;;;;;;4.40;1.60;;;17.80;63.10;;;;;;4995408;28;20713;-77
2022/09/06 05:28:34;;;;;;;4.15;1.92;;;17.80;63.10;;;;;;5003814;28;20050;-76
2022/09/06 05:31:09;;;;;;;2.67;1.83;;;17.80;63.30;;;;;;5002987;28;20138;-77
2022/09/06 05:33:35;;;;;;;2.45;1.60;;;17.80;63.60;;;;;;4997972;28;20046;-78
2022/09/06 05:36:02;;;;;;;1.23;1.13;;;17.80;63.30;;;;;;5018515;28;20038;-76
2022/09/06 05:38:27;;;;;;;3.72;1.95;;;17.80;63.40;;;;;;4997875;28;20049;-77
2022/09/06 05:40:53;;;;;;;3.03;2.10;;;17.80;63.40;;;;;;4999939;28;20042;-77
2022/09/06 05:43:18;;;;;;;4.43;1.50;;;17.80;63.60;;;;;;4966678;28;20061;-76
2022/09/06 05:45:44;;;;;;;2.50;1.95;;;17.80;63.50;;;;;;4978925;28;20046;-78
2022/09/06 05:48:09;;;;;;;7.53;1.70;;;17.80;63.60;;;;;;4991821;28;20053;-76
2022/09/06 05:50:35;;;;;;;2.28;1.67;;;17.90;64.40;;;;;;4962134;28;20069;-78
2022/09/06 05:53:01;;;;;;;4.68;1.50;;;17.90;63.60;;;;;;4979085;28;20041;-76
2022/09/06 05:55:26;;;;;;;3.80;2.17;;;17.90;63.60;;;;;;4997483;28;20037;-76
2022/09/06 05:57:52;;;;;;;3.90;1.83;;;17.90;63.80;;;;;;4999081;28;20030;-76
2022/09/06 06:00:17;;;;;;;5.68;2.40;;;17.90;64.00;;;;;;4997848;28;20042;-75
2022/09/06 06:02:46;;;;;;;2.25;1.85;;;17.90;64.00;;;;;;4984904;28;20121;-77
2022/09/06 06:05:13;;;;;;;12.30;2.50;;;17.90;64.00;;;;;;5001652;28;20079;-76
2022/09/06 06:07:38;;;;;;;2.88;2.17;;;18.00;63.90;;;;;;4966717;28;20046;-75
2022/09/06 06:10:04;;;;;;;1.92;1.73;;;18.00;64.10;;;;;;5002312;28;20029;-77
2022/09/06 06:12:30;;;;;;;3.33;2.50;;;18.00;64.00;;;;;;5002180;28;20049;-77
2022/09/06 06:14:55;;;;;;;2.85;2.35;;;18.00;64.00;;;;;;4989464;28;20087;-76
2022/09/06 06:17:21;;;;;;;5.55;1.85;;;18.10;64.20;;;;;;4983312;28;20082;-76
2022/09/06 06:19:46;;;;;;;3.30;2.00;;;18.10;64.00;;;;;;5002238;28;20036;-76
2022/09/06 06:22:12;;;;;;;4.70;1.70;;;18.10;64.00;;;;;;5003239;28;20037;-77
2022/09/06 06:24:38;;;;;;;7.50;1.90;;;18.10;64.00;;;;;;5000580;28;20132;-77
2022/09/06 06:27:04;;;;;;;4.88;2.15;;;18.10;63.90;;;;;;4991984;28;20025;-77
2022/09/06 06:29:30;;;;;;;8.43;1.73;;;18.20;64.10;;;;;;5006142;28;20561;-78
2022/09/06 06:31:55;;;;;;;3.22;1.80;;;18.20;64.10;;;;;;5001196;28;20034;-77
2022/09/06 06:34:21;;;;;;;5.22;1.90;;;18.20;64.00;;;;;;4965797;28;20103;-77
2022/09/06 06:36:46;;;;;;;6.25;2.65;;;18.30;63.90;;;;;;4987477;28;20052;-77
2022/09/06 06:39:12;;;;;;;4.20;1.80;;;18.30;63.80;;;;;;4985824;28;20046;-77
2022/09/06 06:41:38;;;;;;;4.03;2.00;;;18.30;63.70;;;;;;4988142;28;20045;-77
2022/09/06 06:44:04;;;;;;;2.47;1.88;;;18.30;63.60;;;;;;4984527;28;20814;-77
2022/09/06 06:46:34;;;;;;;5.18;2.10;;;18.40;63.60;;;;;;4971011;28;20121;-76
2022/09/06 06:48:59;;;;;;;4.43;2.00;;;18.40;63.70;;;;;;4970316;28;20049;-78
2022/09/06 06:51:27;;;;;;;2.72;1.83;;;18.40;63.60;;;;;;5002673;28;20033;-77
2022/09/06 06:53:52;;;;;;;6.35;2.33;;;18.40;63.50;;;;;;4978906;28;20041;-77
2022/09/06 06:56:21;;;;;;;11.10;2.55;;;18.50;63.60;;;;;;4981527;28;20353;-77
2022/09/06 06:58:51;;;;;;;6.93;2.78;;;18.50;63.70;;;;;;4965964;28;20045;-78
2022/09/06 07:01:17;;;;;;;7.07;2.22;;;18.60;63.70;;;;;;4953613;28;20124;-78
2022/09/06 07:03:42;;;;;;;5.25;1.90;;;18.70;63.60;;;;;;4991375;28;20510;-77
2022/09/06 07:06:08;;;;;;;3.42;2.50;;;18.80;63.50;;;;;;4993396;28;20041;-77
2022/09/06 07:08:33;;;;;;;6.15;2.00;;;18.90;63.40;;;;;;4984758;28;20049;-78
2022/09/06 07:10:59;;;;;;;3.88;1.92;;;19.10;63.30;;;;;;4976119;28;20120;-78
2022/09/06 07:13:25;;;;;;;2.88;2.38;;;19.30;63.20;;;;;;4996394;28;20045;-76
2022/09/06 07:15:50;;;;;;;5.00;2.42;;;19.40;62.90;;;;;;4997158;28;20034;-77
2022/09/06 07:18:16;;;;;;;5.90;3.13;;;19.50;62.70;;;;;;4981037;28;20038;-77
2022/09/06 07:20:41;;;;;;;9.05;2.88;;;19.70;62.70;;;;;;4998965;28;20053;-77
2022/09/06 07:23:07;;;;;;;6.35;2.22;;;19.90;62.60;;;;;;4965373;28;20026;-78
2022/09/06 07:28:59;;;;;;;13.95;2.47;;;20.20;62.40;;;;;;5012990;28;20076;-77
2022/09/06 07:31:25;;;;;;;10.07;2.58;;;20.30;61.80;;;;;;4960593;28;20129;-78
2022/09/06 07:33:51;;;;;;;11.57;3.40;;;20.50;61.50;;;;;;4982955;28;20039;-77
2022/09/06 07:36:16;;;;;;;13.98;2.60;;;20.70;61.20;;;;;;4948415;28;20122;-78
2022/09/06 07:38:42;;;;;;;10.07;2.78;;;20.80;60.80;;;;;;4960634;28;20053;-77
2022/09/06 07:41:09;;;;;;;4.22;2.60;;;21.00;60.60;;;;;;4952383;28;20038;-78
2022/09/06 07:43:35;;;;;;;7.20;2.63;;;21.10;60.30;;;;;;4937767;28;20039;-78
2022/09/06 07:46:01;;;;;;;7.47;2.78;;;21.30;60.10;;;;;;4968497;28;20041;-77
2022/09/06 07:48:28;;;;;;;8.52;2.63;;;21.50;59.80;;;;;;4948436;28;20129;-78
2022/09/06 07:50:54;;;;;;;11.68;3.00;;;21.70;59.50;;;;;;4947785;28;20051;-77
2022/09/06 07:53:19;;;;;;;7.03;3.28;;;21.90;59.30;;;;;;4966396;28;20117;-77
2022/09/06 07:55:45;;;;;;;12.70;3.10;;;22.00;59.00;;;;;;4970768;28;20043;-77
2022/09/06 07:58:10;;;;;;;10.73;3.00;;;22.20;58.60;;;;;;4955723;28;20099;-79
2022/09/06 08:00:37;;;;;;;7.93;3.67;;;22.40;58.30;;;;;;4986977;28;20046;-78
2022/09/06 08:03:02;;;;;;;11.98;2.85;;;22.50;58.10;;;;;;4976082;28;20073;-78
2022/09/06 08:05:28;;;;;;;8.98;2.60;;;22.70;57.80;;;;;;4988639;28;20034;-77
2022/09/06 08:07:53;;;;;;;8.27;4.20;;;22.90;57.50;;;;;;4986712;28;20046;-78
2022/09/06 08:10:19;;;;;;;8.70;3.30;;;23.10;57.10;;;;;;4983294;28;20038;-77
2022/09/06 08:12:45;;;;;;;8.05;4.15;;;23.20;56.80;;;;;;4947398;28;20092;-78
2022/09/06 08:15:10;;;;;;;6.07;3.55;;;23.30;56.60;;;;;;4998907;28;20047;-78
2022/09/06 08:17:36;;;;;;;7.40;2.90;;;23.50;56.30;;;;;;4963906;28;20030;-78
2022/09/06 08:20:02;;;;;;;5.32;2.50;;;23.70;56.10;;;;;;4975474;28;20041;-78
2022/09/06 08:22:31;;;;;;;5.53;2.70;;;23.90;55.80;;;;;;4938832;28;20042;-77
2022/09/06 08:24:57;;;;;;;5.80;2.53;;;24.10;55.50;;;;;;4989917;28;20035;-77
2022/09/06 08:27:22;;;;;;;8.07;2.38;;;24.30;55.30;;;;;;4953958;28;20048;-78
2022/09/06 08:29:48;;;;;;;3.13;2.53;;;24.50;55.00;;;;;;4955917;28;20037;-78
2022/09/06 08:32:14;;;;;;;3.60;2.70;;;24.70;54.60;;;;;;4998089;28;20038;-78
2022/09/06 08:34:39;;;;;;;4.97;2.10;;;24.90;54.20;;;;;;4980492;28;20045;-77
2022/09/06 08:37:05;;;;;;;8.13;2.55;;;25.10;53.70;;;;;;4994548;28;20362;-78
2022/09/06 08:39:30;;;;;;;8.18;2.22;;;25.40;53.40;;;;;;4982044;28;20034;-77
2022/09/06 08:42:04;;;;;;;5.95;1.92;;;25.60;53.00;;;;;;4941821;28;20061;-78
2022/09/06 08:44:36;;;;;;;5.50;2.20;;;25.80;52.60;;;;;;4947734;28;20051;-79
2022/09/06 08:47:06;;;;;;;7.72;2.28;;;25.90;52.20;;;;;;4937444;28;20070;-78
2022/09/06 08:49:34;;;;;;;6.15;2.20;;;26.10;51.90;;;;;;4919724;28;20047;-78
2022/09/06 08:52:14;;;;;;;3.20;2.00;;;26.30;51.70;;;;;;4925105;28;20039;-77
2022/09/06 08:54:49;;;;;;;5.10;2.20;;;26.50;51.40;;;;;;4941444;28;20044;-78
2022/09/06 08:57:41;;;;;;;3.83;1.90;;;26.70;51.30;;;;;;4925184;28;20042;-77
2022/09/06 09:00:10;;;;;;;2.08;1.63;;;26.90;50.70;;;;;;4946160;28;20524;-78
2022/09/06 09:02:48;;;;;;;7.95;2.10;;;27.10;50.70;;;;;;4914030;28;20416;-79
2022/09/06 09:05:26;;;;;;;8.82;2.10;;;27.40;50.00;;;;;;4922482;28;20063;-78
2022/09/06 09:08:04;;;;;;;5.22;2.03;;;27.60;49.50;;;;;;4939409;28;20042;-77
2022/09/06 09:10:39;;;;;;;4.97;1.92;;;27.70;49.50;;;;;;4938103;28;20058;-78
2022/09/06 09:13:05;;;;;;;4.45;2.30;;;28.00;49.30;;;;;;4939899;28;20118;-78
2022/09/06 09:15:30;;;;;;;3.97;1.95;;;28.20;48.90;;;;;;4908568;28;20118;-78
2022/09/06 09:17:56;;;;;;;2.17;1.63;;;28.40;48.50;;;;;;4924409;28;20043;-79
2022/09/06 09:20:21;;;;;;;7.10;2.30;;;28.60;48.20;;;;;;4939156;28;20063;-78
2022/09/06 09:22:47;;;;;;;4.85;1.92;;;28.80;47.80;;;;;;4931937;28;20034;-79
2022/09/06 09:25:17;;;;;;;2.42;1.80;;;29.00;47.30;;;;;;4924960;28;20127;-79
2022/09/06 09:27:43;;;;;;;5.38;2.00;;;29.10;46.90;;;;;;4940818;28;20062;-80
2022/09/06 09:30:09;;;;;;;2.13;1.90;;;29.30;46.70;;;;;;4940340;28;20038;-79
2022/09/06 09:32:43;;;;;;;3.45;2.05;;;29.50;46.40;;;;;;4935013;28;20035;-78
2022/09/06 09:35:22;;;;;;;1.92;1.63;;;29.70;45.90;;;;;;4934801;28;20035;-78
2022/09/06 09:37:54;;;;;;;3.47;1.70;;;29.90;45.40;;;;;;4935768;28;20027;-78
2022/09/06 09:40:51;;;;;;;3.05;1.88;;;30.00;45.50;;;;;;4926326;28;20070;-77
2022/09/06 09:43:41;;;;;;;4.53;2.45;;;30.20;44.80;;;;;;4938030;28;20134;-78
2022/09/06 09:46:13;;;;;;;5.73;1.73;;;30.40;44.60;;;;;;4930807;28;20043;-76
2022/09/06 09:48:39;;;;;;;4.65;1.88;;;30.60;44.70;;;;;;4943458;28;20130;-77
2022/09/06 09:51:19;;;;;;;3.55;1.98;;;30.80;44.30;;;;;;4937543;28;20464;-79
2022/09/06 09:54:00;;;;;;;6.00;2.25;;;30.90;43.50;;;;;;4900744;28;20531;-77
2022/09/06 09:56:34;;;;;;;3.30;1.70;;;31.10;43.40;;;;;;4941068;28;20313;-78
2022/09/06 09:58:59;;;;;;;4.20;2.05;;;31.20;43.40;;;;;;4923161;28;20053;-78
2022/09/06 10:01:28;;;;;;;3.42;1.77;;;31.50;43.10;;;;;;4915681;28;20047;-77
2022/09/06 10:04:02;;;;;;;4.63;1.67;;;31.60;42.80;;;;;;4911515;28;20114;-77
2022/09/06 10:06:28;;;;;;;3.80;1.77;;;31.80;42.30;;;;;;4924551;28;20042;-74
2022/09/06 10:08:53;;;;;;;4.63;1.65;;;31.90;42.20;;;;;;4906975;28;21712;-74
2022/09/06 10:11:40;;;;;;;2.78;1.60;;;32.10;42.00;;;;;;4921951;28;20505;-74
2022/09/06 10:14:10;;;;;;;3.72;1.35;;;32.30;40.80;;;;;;4912281;28;20492;-74
2022/09/06 10:16:45;;;;;;;3.22;1.40;;;32.50;41.00;;;;;;4898414;28;20039;-75
2022/09/06 10:21:06;;;;;;;3.95;1.40;;;32.70;40.50;;;;;;4902245;29;20043;-75
2022/09/06 10:23:13;;;;;;;2.33;1.25;;;32.90;40.30;;;;;;4846304;29;20482;-75
2022/09/06 10:25:43;;;;;;;2.60;1.30;;;33.10;40.70;;;;;;4867209;29;20609;-75
2022/09/06 10:28:30;;;;;;;2.15;1.00;;;33.20;39.70;;;;;;4866491;29;20957;-75
2022/09/06 10:31:30;;;;;;;3.00;1.45;;;33.30;39.10;;;;;;4860076;29;20051;-74
2022/09/06 10:33:56;;;;;;;4.03;1.20;;;33.60;37.50;;;;;;4854808;29;20045;-75
2022/09/06 10:36:40;;;;;;;3.95;1.38;;;33.70;38.40;;;;;;4860719;29;20395;-77
2022/09/06 10:39:24;;;;;;;3.03;0.98;;;33.80;37.90;;;;;;4879003;29;20047;-75
2022/09/06 10:42:09;;;;;;;1.30;1.20;;;33.90;37.50;;;;;;4853740;29;20686;-75
2022/09/06 10:44:44;;;;;;;3.10;1.20;;;34.00;36.50;;;;;;4888133;29;20052;-75
2022/09/06 10:47:11;;;;;;;1.50;1.23;;;34.10;37.00;;;;;;4908695;29;20128;-74
2022/09/06 10:49:37;;;;;;;2.60;1.67;;;34.20;36.90;;;;;;4882805;29;20051;-76
2022/09/06 10:52:05;;;;;;;3.90;1.15;;;34.30;36.50;;;;;;4885898;29;20131;-75
2022/09/06 10:54:30;;;;;;;3.05;0.95;;;34.50;36.30;;;;;;4878784;29;20040;-75
2022/09/06 10:57:16;;;;;;;4.50;1.67;;;34.60;36.10;;;;;;4883391;29;20036;-78
2022/09/06 10:59:45;;;;;;;1.92;1.25;;;34.70;35.70;;;;;;4941315;28;20061;-77
2022/09/06 11:02:14;;;;;;;1.88;1.20;;;34.70;35.50;;;;;;4957793;28;20106;-78
2022/09/06 11:04:41;;;;;;;4.95;1.45;;;34.90;35.30;;;;;;4951969;28;20043;-78
2022/09/06 11:07:19;;;;;;;2.95;1.30;;;35.00;35.10;;;;;;4929533;28;20042;-77
2022/09/06 11:10:15;;;;;;;3.05;1.50;;;35.20;34.60;;;;;;4940503;28;20067;-77
2022/09/06 11:12:48;;;;;;;1.30;1.10;;;35.40;34.90;;;;;;4940709;28;20050;-76
2022/09/06 11:15:14;;;;;;;2.97;1.17;;;35.60;34.80;;;;;;4944810;28;20590;-77
2022/09/06 11:17:53;;;;;;;1.50;1.40;;;35.80;34.60;;;;;;4956530;28;20162;-76
2022/09/06 11:20:24;;;;;;;2.95;1.20;;;36.00;34.60;;;;;;4960695;28;20117;-77
2022/09/06 11:22:55;;;;;;;;;;;36.20;34.10;;;;;;4959578;28;20039;-78
2022/09/06 11:25:27;;;;;;;3.75;1.30;;;36.30;34.20;;;;;;4959581;28;19914;-79
2022/09/06 11:27:54;;;;;;;4.15;1.42;;;36.40;33.90;;;;;;4955524;28;20045;-78
2022/09/06 11:30:21;;;;;;;1.42;1.10;;;36.40;33.70;;;;;;4942934;28;20619;-78
2022/09/06 11:32:50;;;;;;;8.35;1.20;;;36.50;33.60;;;;;;4958133;28;20026;-78
2022/09/06 11:35:27;;;;;;;6.03;1.33;;;36.60;33.00;;;;;;4942338;28;20096;-78
2022/09/06 11:38:14;;;;;;;2.28;1.30;;;36.70;32.40;;;;;;4957075;28;20100;-77
2022/09/06 11:40:44;;;;;;;1.70;1.10;;;36.80;32.40;;;;;;4945957;28;20058;-77
2022/09/06 11:43:12;;;;;;;1.88;1.10;;;37.00;32.70;;;;;;4944231;28;20062;-77
2022/09/06 11:45:47;;;;;;;1.25;0.95;;;37.10;32.50;;;;;;4957958;28;20051;-77
2022/09/06 11:48:33;;;;;;;2.25;1.05;;;37.20;32.00;;;;;;4931175;28;20061;-77
2022/09/06 11:50:58;;;;;;;4.05;1.35;;;37.40;31.20;;;;;;4962641;28;20027;-77
2022/09/06 11:53:25;;;;;;;1.30;1.00;;;37.50;31.70;;;;;;4959089;28;20081;-78
2022/09/06 11:55:57;;;;;;;3.70;1.10;;;37.60;31.50;;;;;;4960558;28;20035;-77
2022/09/06 11:58:28;;;;;;;2.10;1.00;;;37.70;31.40;;;;;;4957509;28;20039;-77
2022/09/06 12:01:12;;;;;;;2.97;1.17;;;37.70;31.10;;;;;;4959083;28;20042;-77
2022/09/06 12:03:46;;;;;;;2.38;1.23;;;37.80;30.20;;;;;;4961697;28;20046;-77
2022/09/06 12:06:19;;;;;;;3.13;1.10;;;37.80;30.60;;;;;;4965016;28;20038;-77
2022/09/06 12:08:45;;;;;;;2.90;1.23;;;37.80;30.40;;;;;;4964901;28;20044;-77
2022/09/06 12:11:36;;;;;;;2.55;1.45;;;37.80;30.40;;;;;;4960111;28;20085;-78
2022/09/06 12:14:23;;;;;;;2.63;0.95;;;37.90;29.90;;;;;;4971943;28;20039;-77
2022/09/06 12:16:57;;;;;;;1.02;0.90;;;38.10;30.30;;;;;;4967814;28;20022;-78
2022/09/06 12:19:45;;;;;;;3.58;1.30;;;38.00;30.00;;;;;;4970427;28;20070;-77
2022/09/06 12:22:45;;;;;;;2.15;1.10;;;38.20;30.00;;;;;;4954440;28;20642;-77
2022/09/06 12:25:39;;;;;;;2.33;0.80;;;38.30;30.00;;;;;;4924522;28;20039;-78
2022/09/06 12:28:06;;;;;;;2.13;0.80;;;38.30;30.00;;;;;;4964692;28;20679;-78
2022/09/06 12:30:42;;;;;;;5.28;1.15;;;38.40;30.20;;;;;;4949372;28;20500;-76
2022/09/06 12:33:31;;;;;;;2.80;1.30;;;38.40;29.90;;;;;;4929224;28;20129;-78
2022/09/06 12:36:17;;;;;;;1.50;1.10;;;38.60;29.50;;;;;;4934414;28;20708;-77
2022/09/06 12:38:56;;;;;;;1.80;1.02;;;38.60;29.70;;;;;;4989406;28;20044;-78
2022/09/06 12:41:22;;;;;;;2.42;0.80;;;38.70;29.80;;;;;;4963620;28;20101;-77
2022/09/06 12:43:48;;;;;;;4.55;0.90;;;38.60;29.90;;;;;;4957781;28;20219;-79
2022/09/06 12:46:14;;;;;;;1.58;0.90;;;38.60;29.90;;;;;;4975568;28;20049;-77
2022/09/06 12:48:43;;;;;;;2.70;1.40;;;38.50;29.80;;;;;;4965566;28;20049;-77
2022/09/06 12:51:18;;;;;;;1.00;0.90;;;38.50;29.80;;;;;;4992118;28;20041;-77
2022/09/06 12:53:54;;;;;;;1.73;1.20;;;38.40;29.40;;;;;;4970253;28;20800;-77
2022/09/06 12:56:20;;;;;;;4.97;1.23;;;38.30;29.40;;;;;;4960030;28;20052;-76
2022/09/06 12:58:46;;;;;;;1.20;1.00;;;38.20;29.60;;;;;;4973755;28;20038;-78
2022/09/06 13:01:34;;;;;;;1.25;0.82;;;38.10;29.60;;;;;;4984778;28;20036;-78
2022/09/06 13:04:07;;;;;;;1.58;0.80;;;38.10;29.60;;;;;;4994591;28;20038;-78